Aidamar — ICSJ — position and weather

sailwx.info

Track history (hours):
 
Tides and Currents Weather Stations Pressure Air Temp Water Temp Dewpoint Dewpoint Depression Visibility Wind Speed Wind Dir Waves Ship Positions

Aidamar

Last reported at 2016-May-05 23:33 UTC. Time now 2016-May-05 23:53 UTC.
Position N 58°46' E 010°38'.

Length 253 m; draft 7.3 m.

Type: Passenger vessel. MMSI: 247312900.

Date/timePositionNaut miles runAvg speedWind from/ knotsBaromVisibWave heightAir tempDewpointWater temp
2016-May-05 23:33N 58°46' E 010°38'8 8.0
2016-May-05 22:33N 58°54' E 010°36'1312.9
2016-May-05 21:33N 59°07' E 010°35'1615.6
2016-May-05 20:33N 59°23' E 010°34'1414.1
2016-May-05 19:33N 59°37' E 010°38'1211.6
2016-May-05 18:33N 59°48' E 010°35'7 0.5
2016-May-05 05:27N 59°54' E 010°42'1112.2
2016-May-05 04:33N 59°44' E 010°35'1111.3
2016-May-05 03:34N 59°32' E 010°37'1413.7
2016-May-05 02:34N 59°19' E 010°37'1413.8
2016-May-05 01:33N 59°05' E 010°36'1413.5
2016-May-05 00:33N 58°53' E 010°23'1514.7
2016-May-04 23:33N 58°41' E 010°06'1514.8
2016-May-04 22:33N 58°30' E 009°47'1514.6
2016-May-04 21:33N 58°21' E 009°26'1514.7
2016-May-04 20:33N 58°14' E 009°01'10 9.7
2016-May-04 19:33N 58°09' E 008°46'7 6.8
2016-May-04 18:33N 58°05' E 008°35'8 8.1
2016-May-04 17:33N 58°01' E 008°21'9 0.6
2016-May-04 04:12N 58°00' E 008°05'2313.2
2016-May-04 02:28N 57°52' E 007°24'1313.7
2016-May-04 01:33N 57°54' E 007°01'1413.8
2016-May-04 00:33N 57°58' E 006°36'1413.6
2016-May-03 23:33N 58°07' E 006°16'1211.9
2016-May-03 22:33N 58°15' E 005°60'7 7.0
2016-May-03 21:33N 58°20' E 005°50'7 7.4
2016-May-03 20:33N 58°25' E 005°40'7 7.2
2016-May-03 19:33N 58°31' E 005°32'1010.1
2016-May-03 18:33N 58°39' E 005°21'1211.5
2016-May-03 17:33N 58°50' E 005°26'1312.7
2016-May-03 16:33N 59°02' E 005°33'7 6.6
2016-May-03 15:31N 58°58' E 005°44'0 0.0
2016-May-03 14:31N 58°58' E 005°44'0 0.0
2016-May-03 13:31N 58°58' E 005°44'0 0.0
2016-May-03 12:31N 58°58' E 005°44'0 0.0
2016-May-03 11:31N 58°58' E 005°44'0 0.0
2016-May-03 10:31N 58°58' E 005°44'0 0.0
2016-May-03 09:31N 58°58' E 005°44'0 0.0
2016-May-03 08:31N 58°58' E 005°44'0 0.0
2016-May-03 07:31N 58°58' E 005°44'0 0.0
2016-May-03 06:22N 58°58' E 005°44'0 0.0
2016-May-03 05:32N 58°58' E 005°44'5 5.0
2016-May-03 04:33N 59°02' E 005°37'1010.4
2016-May-03 03:34N 59°04' E 005°17'1313.1
2016-May-03 02:33N 59°08' E 004°53'1313.0
2016-May-03 01:33N 59°19' E 004°39'263 5.7
2016-May-01 03:32N 55°05' E 006°43'1515.1
2016-May-01 02:32N 54°52' E 006°55'1715.0
2016-May-01 01:24N 54°37' E 007°10'1314.9
2016-May-01 00:33N 54°26' E 007°21'1514.8
2016-Apr-30 23:33N 54°13' E 007°33'1514.6
2016-Apr-30 22:34N 54°05' E 007°54'1414.0
2016-Apr-30 21:33N 54°00' E 008°16'1616.3
2016-Apr-30 20:33N 53°54' E 008°42'1313.2
2016-Apr-30 19:33N 53°52' E 009°04'1110.8
2016-Apr-30 18:34N 53°50' E 009°22'1312.6
2016-Apr-30 17:34N 53°38' E 009°32'1111.4
2016-Apr-30 16:34N 53°33' E 009°49'5 4.5
2016-Apr-30 15:31N 53°33' E 009°56'0 0.0
2016-Apr-30 14:31N 53°33' E 009°56'0 0.0
2016-Apr-30 13:31N 53°33' E 009°56'0 0.0
2016-Apr-30 12:34N 53°33' E 009°56'0 0.0
2016-Apr-30 11:34N 53°33' E 009°56'0 0.0
2016-Apr-30 10:34N 53°33' E 009°56'0 0.0
2016-Apr-30 09:34N 53°33' E 009°56'0 0.0
2016-Apr-30 08:33N 53°33' E 009°56'0 0.0
2016-Apr-30 07:34N 53°33' E 009°56'0 0.0
2016-Apr-30 06:34N 53°33' E 009°56'0 0.0
2016-Apr-30 05:33N 53°33' E 009°56'4 4.2
2016-Apr-30 04:34N 53°33' E 009°49'9 9.0
2016-Apr-30 03:34N 53°36' E 009°35'1111.1
2016-Apr-30 02:33N 53°45' E 009°24'1211.5
2016-Apr-30 01:34N 53°53' E 009°10'1212.2
2016-Apr-30 00:34N 53°50' E 008°49'1211.5
2016-Apr-29 23:33N 53°58' E 008°34'1414.1
2016-Apr-29 22:34N 53°59' E 008°11'10 9.8
2016-Apr-29 21:33N 53°57' E 007°55'7 7.2
2016-Apr-29 20:33N 53°55' E 007°43'7 6.8
2016-Apr-29 19:33N 53°54' E 007°32'7 6.6
2016-Apr-29 18:34N 53°52' E 007°21'6 6.2
2016-Apr-29 17:33N 53°51' E 007°10'7 6.6
2016-Apr-29 16:33N 53°49' E 006°60'7 6.9
2016-Apr-29 15:33N 53°48' E 006°48'7 6.9
2016-Apr-29 14:33N 53°46' E 006°37'8 7.5
2016-Apr-29 13:33N 53°44' E 006°24'8 7.8
2016-Apr-29 12:33N 53°42' E 006°12'7 7.0
2016-Apr-29 11:32N 53°40' E 006°00'7 6.7
2016-Apr-29 10:33N 53°38' E 005°50'7 6.5
2016-Apr-29 09:33N 53°36' E 005°39'6 6.3
2016-Apr-29 08:33N 53°34' E 005°29'6 6.5
2016-Apr-29 07:33N 53°32' E 005°19'9 9.3
2016-Apr-29 06:33N 53°29' E 005°04'5212.9
2016-Apr-29 02:30N 52°48' E 004°12'1010.3
2016-Apr-29 01:33N 52°38' E 004°16'1212.3
2016-Apr-29 00:33N 52°29' E 004°29'5 4.9
2016-Apr-28 23:33N 52°28' E 004°37'8 8.3
2016-Apr-28 22:34N 52°25' E 004°50'4 3.9
2016-Apr-28 21:31N 52°23' E 004°55'0 0.0
2016-Apr-28 20:32N 52°23' E 004°55'0 0.0
2016-Apr-28 19:33N 52°23' E 004°55'0 0.0
2016-Apr-28 18:33N 52°23' E 004°55'0 0.0
2016-Apr-28 17:33N 52°23' E 004°55'0 0.0
2016-Apr-28 16:33N 52°23' E 004°55'0 0.0
2016-Apr-28 15:27N 52°23' E 004°55'0 0.0
2016-Apr-28 14:33N 52°23' E 004°55'0 0.0
2016-Apr-28 13:33N 52°23' E 004°55'0 0.0
2016-Apr-28 12:33N 52°23' E 004°55'0 0.0
2016-Apr-28 11:33N 52°23' E 004°55'0 0.0
2016-Apr-28 10:33N 52°23' E 004°55'0 0.0
2016-Apr-28 09:33N 52°23' E 004°55'0 0.1
2016-Apr-28 08:34N 52°23' E 004°55'7 6.6
2016-Apr-28 07:34N 52°26' E 004°45'6 5.6
2016-Apr-28 06:33N 52°28' E 004°37'7 7.4
2016-Apr-28 05:33N 52°29' E 004°24'1212.0
2016-Apr-28 04:33N 52°28' E 004°05'8 7.8
2016-Apr-28 03:33N 52°25' E 003°53'7 7.4
2016-Apr-28 02:33N 52°22' E 003°42'68 9.7
2016-Apr-27 19:31N 51°24' E 002°44'1313.0
2016-Apr-27 18:32N 51°24' E 003°05'6 6.5
2016-Apr-27 17:33N 51°20' E 003°12'0 0.0
2016-Apr-27 16:24N 51°20' E 003°12'0 0.0
2016-Apr-27 15:33N 51°20' E 003°12'0 0.0
2016-Apr-27 14:14N 51°20' E 003°12'0 0.0
2016-Apr-27 13:32N 51°20' E 003°12'0 0.0
2016-Apr-27 12:29N 51°20' E 003°12'0 0.0
2016-Apr-27 11:32N 51°20' E 003°12'0 0.0
2016-Apr-27 10:29N 51°20' E 003°12'0 0.0
2016-Apr-27 09:29N 51°20' E 003°12'0 0.0
2016-Apr-27 08:31N 51°20' E 003°12'0 0.5
2016-Apr-27 07:34N 51°21' E 003°12'10 9.9
2016-Apr-27 06:34N 51°22' E 002°57'1413.2
2016-Apr-27 05:32N 51°22' E 002°35'1313.3
2016-Apr-27 04:33N 51°17' E 002°16'9 8.7
2016-Apr-27 03:33N 51°12' E 002°04'9 8.6
2016-Apr-27 02:34N 51°09' E 001°51'1716.6
2016-Apr-27 01:34N 50°57' E 001°33'7815.5
2016-Apr-26 20:32N 49°56' E 000°16'1514.9
2016-Apr-26 19:34N 49°45' E 000°01'1515.0
2016-Apr-26 18:33N 49°31' W 000°04'7 6.6
2016-Apr-26 17:32N 49°29' E 000°06'0 0.0
2016-Apr-26 16:32N 49°29' E 000°06'0 0.0
2016-Apr-26 15:33N 49°29' E 000°06'0 0.0
2016-Apr-26 14:33N 49°29' E 000°06'0 0.0
2016-Apr-26 13:32N 49°29' E 000°06'0 0.0
2016-Apr-26 12:32N 49°29' E 000°06'0 0.0
2016-Apr-26 11:31N 49°29' E 000°06'0 0.0
2016-Apr-26 10:31N 49°29' E 000°06'0 0.0
2016-Apr-26 09:31N 49°29' E 000°06'0 0.0
2016-Apr-26 08:31N 49°29' E 000°06'0 0.0
2016-Apr-26 07:31N 49°29' E 000°06'0 0.0
2016-Apr-26 06:29N 49°29' E 000°06'0 0.0
2016-Apr-26 05:33N 49°29' E 000°06'4 3.8
2016-Apr-26 04:33N 49°30' E 000°01'1212.4
2016-Apr-26 03:34N 49°34' W 000°17'9 8.6
2016-Apr-26 02:34N 49°42' W 000°22'8 7.5
2016-Apr-26 01:33N 49°49' W 000°26'8 8.2
2016-Apr-26 00:33N 49°57' W 000°31'8 8.4
2016-Apr-25 23:34N 50°05' W 000°35'  
Track history (hours):
 
Tides and Currents Weather Stations Pressure Air Temp Water Temp Dewpoint Dewpoint Depression Visibility Wind Speed Wind Dir Waves Ship Positions

Aidamar

Last reported at 2016-May-05 23:33 UTC. Time now 2016-May-05 23:53 UTC.
Position N 58°46' E 010°38'.

Length 253 m; draft 7.3 m.

Type: Passenger vessel. MMSI: 247312900.

Date/timePositionNaut miles runAvg speedWind from/ knotsBaromVisibWave heightAir tempDewpointWater temp
2016-May-05 23:33N 58°46' E 010°38'8 8.0
2016-May-05 22:33N 58°54' E 010°36'1312.9
2016-May-05 21:33N 59°07' E 010°35'1615.6
2016-May-05 20:33N 59°23' E 010°34'1414.1
2016-May-05 19:33N 59°37' E 010°38'1211.6
2016-May-05 18:33N 59°48' E 010°35'7 0.5
2016-May-05 05:27N 59°54' E 010°42'1112.2
2016-May-05 04:33N 59°44' E 010°35'1111.3
2016-May-05 03:34N 59°32' E 010°37'1413.7
2016-May-05 02:34N 59°19' E 010°37'1413.8
2016-May-05 01:33N 59°05' E 010°36'1413.5
2016-May-05 00:33N 58°53' E 010°23'1514.7
2016-May-04 23:33N 58°41' E 010°06'1514.8
2016-May-04 22:33N 58°30' E 009°47'1514.6
2016-May-04 21:33N 58°21' E 009°26'1514.7
2016-May-04 20:33N 58°14' E 009°01'10 9.7
2016-May-04 19:33N 58°09' E 008°46'7 6.8
2016-May-04 18:33N 58°05' E 008°35'8 8.1
2016-May-04 17:33N 58°01' E 008°21'9 0.6
2016-May-04 04:12N 58°00' E 008°05'2313.2
2016-May-04 02:28N 57°52' E 007°24'1313.7
2016-May-04 01:33N 57°54' E 007°01'1413.8
2016-May-04 00:33N 57°58' E 006°36'1413.6
2016-May-03 23:33N 58°07' E 006°16'1211.9
2016-May-03 22:33N 58°15' E 005°60'7 7.0
2016-May-03 21:33N 58°20' E 005°50'7 7.4
2016-May-03 20:33N 58°25' E 005°40'7 7.2
2016-May-03 19:33N 58°31' E 005°32'1010.1
2016-May-03 18:33N 58°39' E 005°21'1211.5
2016-May-03 17:33N 58°50' E 005°26'1312.7
2016-May-03 16:33N 59°02' E 005°33'7 6.6
2016-May-03 15:31N 58°58' E 005°44'0 0.0
2016-May-03 14:31N 58°58' E 005°44'0 0.0
2016-May-03 13:31N 58°58' E 005°44'0 0.0
2016-May-03 12:31N 58°58' E 005°44'0 0.0
2016-May-03 11:31N 58°58' E 005°44'0 0.0
2016-May-03 10:31N 58°58' E 005°44'0 0.0
2016-May-03 09:31N 58°58' E 005°44'0 0.0
2016-May-03 08:31N 58°58' E 005°44'0 0.0
2016-May-03 07:31N 58°58' E 005°44'0 0.0
2016-May-03 06:22N 58°58' E 005°44'0 0.0
2016-May-03 05:32N 58°58' E 005°44'5 5.0
2016-May-03 04:33N 59°02' E 005°37'1010.4
2016-May-03 03:34N 59°04' E 005°17'1313.1
2016-May-03 02:33N 59°08' E 004°53'1313.0
2016-May-03 01:33N 59°19' E 004°39'263 5.7
2016-May-01 03:32N 55°05' E 006°43'1515.1
2016-May-01 02:32N 54°52' E 006°55'1715.0
2016-May-01 01:24N 54°37' E 007°10'1314.9
2016-May-01 00:33N 54°26' E 007°21'1514.8
2016-Apr-30 23:33N 54°13' E 007°33'1514.6
2016-Apr-30 22:34N 54°05' E 007°54'1414.0
2016-Apr-30 21:33N 54°00' E 008°16'1616.3
2016-Apr-30 20:33N 53°54' E 008°42'1313.2
2016-Apr-30 19:33N 53°52' E 009°04'1110.8
2016-Apr-30 18:34N 53°50' E 009°22'1312.6
2016-Apr-30 17:34N 53°38' E 009°32'1111.4
2016-Apr-30 16:34N 53°33' E 009°49'5 4.5
2016-Apr-30 15:31N 53°33' E 009°56'0 0.0
2016-Apr-30 14:31N 53°33' E 009°56'0 0.0
2016-Apr-30 13:31N 53°33' E 009°56'0 0.0
2016-Apr-30 12:34N 53°33' E 009°56'0 0.0
2016-Apr-30 11:34N 53°33' E 009°56'0 0.0
2016-Apr-30 10:34N 53°33' E 009°56'0 0.0
2016-Apr-30 09:34N 53°33' E 009°56'0 0.0
2016-Apr-30 08:33N 53°33' E 009°56'0 0.0
2016-Apr-30 07:34N 53°33' E 009°56'0 0.0
2016-Apr-30 06:34N 53°33' E 009°56'0 0.0
2016-Apr-30 05:33N 53°33' E 009°56'4 4.2
2016-Apr-30 04:34N 53°33' E 009°49'9 9.0
2016-Apr-30 03:34N 53°36' E 009°35'1111.1
2016-Apr-30 02:33N 53°45' E 009°24'1211.5
2016-Apr-30 01:34N 53°53' E 009°10'1212.2
2016-Apr-30 00:34N 53°50' E 008°49'1211.5
2016-Apr-29 23:33N 53°58' E 008°34'1414.1
2016-Apr-29 22:34N 53°59' E 008°11'10 9.8
2016-Apr-29 21:33N 53°57' E 007°55'7 7.2
2016-Apr-29 20:33N 53°55' E 007°43'7 6.8
2016-Apr-29 19:33N 53°54' E 007°32'7 6.6
2016-Apr-29 18:34N 53°52' E 007°21'6 6.2
2016-Apr-29 17:33N 53°51' E 007°10'7 6.6
2016-Apr-29 16:33N 53°49' E 006°60'7 6.9
2016-Apr-29 15:33N 53°48' E 006°48'7 6.9
2016-Apr-29 14:33N 53°46' E 006°37'8 7.5
2016-Apr-29 13:33N 53°44' E 006°24'8 7.8
2016-Apr-29 12:33N 53°42' E 006°12'7 7.0
2016-Apr-29 11:32N 53°40' E 006°00'7 6.7
2016-Apr-29 10:33N 53°38' E 005°50'7 6.5
2016-Apr-29 09:33N 53°36' E 005°39'6 6.3
2016-Apr-29 08:33N 53°34' E 005°29'6 6.5
2016-Apr-29 07:33N 53°32' E 005°19'9 9.3
2016-Apr-29 06:33N 53°29' E 005°04'5212.9
2016-Apr-29 02:30N 52°48' E 004°12'1010.3
2016-Apr-29 01:33N 52°38' E 004°16'1212.3
2016-Apr-29 00:33N 52°29' E 004°29'5 4.9
2016-Apr-28 23:33N 52°28' E 004°37'8 8.3
2016-Apr-28 22:34N 52°25' E 004°50'4 3.9
2016-Apr-28 21:31N 52°23' E 004°55'0 0.0
2016-Apr-28 20:32N 52°23' E 004°55'0 0.0
2016-Apr-28 19:33N 52°23' E 004°55'0 0.0
2016-Apr-28 18:33N 52°23' E 004°55'0 0.0
2016-Apr-28 17:33N 52°23' E 004°55'0 0.0
2016-Apr-28 16:33N 52°23' E 004°55'0 0.0
2016-Apr-28 15:27N 52°23' E 004°55'0 0.0
2016-Apr-28 14:33N 52°23' E 004°55'0 0.0
2016-Apr-28 13:33N 52°23' E 004°55'0 0.0
2016-Apr-28 12:33N 52°23' E 004°55'0 0.0
2016-Apr-28 11:33N 52°23' E 004°55'0 0.0
2016-Apr-28 10:33N 52°23' E 004°55'0 0.0
2016-Apr-28 09:33N 52°23' E 004°55'0 0.1
2016-Apr-28 08:34N 52°23' E 004°55'7 6.6
2016-Apr-28 07:34N 52°26' E 004°45'6 5.6
2016-Apr-28 06:33N 52°28' E 004°37'7 7.4
2016-Apr-28 05:33N 52°29' E 004°24'1212.0
2016-Apr-28 04:33N 52°28' E 004°05'8 7.8
2016-Apr-28 03:33N 52°25' E 003°53'7 7.4
2016-Apr-28 02:33N 52°22' E 003°42'68 9.7
2016-Apr-27 19:31N 51°24' E 002°44'1313.0
2016-Apr-27 18:32N 51°24' E 003°05'6 6.5
2016-Apr-27 17:33N 51°20' E 003°12'0 0.0
2016-Apr-27 16:24N 51°20' E 003°12'0 0.0
2016-Apr-27 15:33N 51°20' E 003°12'0 0.0
2016-Apr-27 14:14N 51°20' E 003°12'0 0.0
2016-Apr-27 13:32N 51°20' E 003°12'0 0.0
2016-Apr-27 12:29N 51°20' E 003°12'0 0.0
2016-Apr-27 11:32N 51°20' E 003°12'0 0.0
2016-Apr-27 10:29N 51°20' E 003°12'0 0.0
2016-Apr-27 09:29N 51°20' E 003°12'0 0.0
2016-Apr-27 08:31N 51°20' E 003°12'0 0.5
2016-Apr-27 07:34N 51°21' E 003°12'10 9.9
2016-Apr-27 06:34N 51°22' E 002°57'1413.2
2016-Apr-27 05:32N 51°22' E 002°35'1313.3
2016-Apr-27 04:33N 51°17' E 002°16'9 8.7
2016-Apr-27 03:33N 51°12' E 002°04'9 8.6
2016-Apr-27 02:34N 51°09' E 001°51'1716.6
2016-Apr-27 01:34N 50°57' E 001°33'7815.5
2016-Apr-26 20:32N 49°56' E 000°16'1514.9
2016-Apr-26 19:34N 49°45' E 000°01'1515.0
2016-Apr-26 18:33N 49°31' W 000°04'7 6.6
2016-Apr-26 17:32N 49°29' E 000°06'0 0.0
2016-Apr-26 16:32N 49°29' E 000°06'0 0.0
2016-Apr-26 15:33N 49°29' E 000°06'0 0.0
2016-Apr-26 14:33N 49°29' E 000°06'0 0.0
2016-Apr-26 13:32N 49°29' E 000°06'0 0.0
2016-Apr-26 12:32N 49°29' E 000°06'0 0.0
2016-Apr-26 11:31N 49°29' E 000°06'0 0.0
2016-Apr-26 10:31N 49°29' E 000°06'0 0.0
2016-Apr-26 09:31N 49°29' E 000°06'0 0.0
2016-Apr-26 08:31N 49°29' E 000°06'0 0.0
2016-Apr-26 07:31N 49°29' E 000°06'0 0.0
2016-Apr-26 06:29N 49°29' E 000°06'0 0.0
2016-Apr-26 05:33N 49°29' E 000°06'4 3.8
2016-Apr-26 04:33N 49°30' E 000°01'1212.4
2016-Apr-26 03:34N 49°34' W 000°17'9 8.6
2016-Apr-26 02:34N 49°42' W 000°22'8 7.5
2016-Apr-26 01:33N 49°49' W 000°26'8 8.2
2016-Apr-26 00:33N 49°57' W 000°31'8 8.4
2016-Apr-25 23:34N 50°05' W 000°35'  

Dump ship's entire track history